sensor_id;sensor_type;location;lat;lon;timestamp;P1;durP1;ratioP1;P2;durP2;ratioP2
54983;SDS011;40884;53.562;9.940;2022-11-23T00:00:23;36.10;;;22.90;;
54983;SDS011;40884;53.562;9.940;2022-11-23T00:01:25;33.53;;;23.60;;
54983;SDS011;40884;53.562;9.940;2022-11-23T00:02:26;32.33;;;21.60;;
54983;SDS011;40884;53.562;9.940;2022-11-23T00:03:26;36.40;;;23.23;;
54983;SDS011;40884;53.562;9.940;2022-11-23T00:04:26;34.67;;;21.37;;
54983;SDS011;40884;53.562;9.940;2022-11-23T00:05:26;33.63;;;21.07;;
54983;SDS011;40884;53.562;9.940;2022-11-23T00:06:27;38.33;;;24.53;;
54983;SDS011;40884;53.562;9.940;2022-11-23T00:07:27;33.93;;;23.40;;
54983;SDS011;40884;53.562;9.940;2022-11-23T00:08:27;35.80;;;22.23;;
54983;SDS011;40884;53.562;9.940;2022-11-23T00:09:27;33.03;;;20.13;;
54983;SDS011;40884;53.562;9.940;2022-11-23T00:10:27;37.03;;;23.70;;
54983;SDS011;40884;53.562;9.940;2022-11-23T00:11:27;35.73;;;22.80;;
54983;SDS011;40884;53.562;9.940;2022-11-23T00:12:27;34.00;;;22.77;;
54983;SDS011;40884;53.562;9.940;2022-11-23T00:13:28;36.53;;;22.23;;
54983;SDS011;40884;53.562;9.940;2022-11-23T00:14:28;32.30;;;21.53;;
54983;SDS011;40884;53.562;9.940;2022-11-23T00:15:28;35.50;;;23.73;;
54983;SDS011;40884;53.562;9.940;2022-11-23T00:16:28;35.57;;;23.10;;
54983;SDS011;40884;53.562;9.940;2022-11-23T00:17:29;36.83;;;23.43;;
54983;SDS011;40884;53.562;9.940;2022-11-23T00:18:29;33.57;;;22.63;;
54983;SDS011;40884;53.562;9.940;2022-11-23T00:19:29;35.90;;;22.70;;
54983;SDS011;40884;53.562;9.940;2022-11-23T00:20:29;37.20;;;23.30;;
54983;SDS011;40884;53.562;9.940;2022-11-23T00:21:30;34.40;;;22.03;;
54983;SDS011;40884;53.562;9.940;2022-11-23T00:22:31;35.08;;;23.38;;
54983;SDS011;40884;53.562;9.940;2022-11-23T00:23:31;35.50;;;22.07;;
54983;SDS011;40884;53.562;9.940;2022-11-23T00:24:31;38.40;;;24.17;;
54983;SDS011;40884;53.562;9.940;2022-11-23T00:25:31;36.37;;;23.23;;
54983;SDS011;40884;53.562;9.940;2022-11-23T00:26:31;34.67;;;21.87;;
54983;SDS011;40884;53.562;9.940;2022-11-23T00:27:31;32.23;;;22.50;;
54983;SDS011;40884;53.562;9.940;2022-11-23T00:28:32;38.07;;;24.73;;
54983;SDS011;40884;53.562;9.940;2022-11-23T00:29:32;35.17;;;22.90;;
54983;SDS011;40884;53.562;9.940;2022-11-23T00:30:32;36.43;;;24.47;;
54983;SDS011;40884;53.562;9.940;2022-11-23T00:31:32;35.73;;;23.43;;
54983;SDS011;40884;53.562;9.940;2022-11-23T00:32:32;37.37;;;23.53;;
54983;SDS011;40884;53.562;9.940;2022-11-23T00:33:32;34.27;;;23.10;;
54983;SDS011;40884;53.562;9.940;2022-11-23T00:34:34;34.50;;;24.55;;
54983;SDS011;40884;53.562;9.940;2022-11-23T00:35:35;42.53;;;26.48;;
54983;SDS011;40884;53.562;9.940;2022-11-23T00:36:35;35.60;;;23.87;;
54983;SDS011;40884;53.562;9.940;2022-11-23T00:37:35;37.13;;;23.30;;
54983;SDS011;40884;53.562;9.940;2022-11-23T00:38:35;39.50;;;24.47;;
54983;SDS011;40884;53.562;9.940;2022-11-23T00:39:35;36.13;;;24.00;;
54983;SDS011;40884;53.562;9.940;2022-11-23T00:40:36;37.17;;;22.23;;
54983;SDS011;40884;53.562;9.940;2022-11-23T00:41:36;34.40;;;23.07;;
54983;SDS011;40884;53.562;9.940;2022-11-23T00:42:36;38.63;;;22.27;;
54983;SDS011;40884;53.562;9.940;2022-11-23T00:43:36;33.10;;;22.30;;
54983;SDS011;40884;53.562;9.940;2022-11-23T00:44:37;32.43;;;21.43;;
54983;SDS011;40884;53.562;9.940;2022-11-23T00:45:37;32.77;;;21.73;;
54983;SDS011;40884;53.562;9.940;2022-11-23T00:46:37;33.97;;;22.93;;
54983;SDS011;40884;53.562;9.940;2022-11-23T00:47:38;32.60;;;21.95;;
54983;SDS011;40884;53.562;9.940;2022-11-23T00:48:38;34.43;;;22.30;;
54983;SDS011;40884;53.562;9.940;2022-11-23T00:49:38;32.47;;;23.17;;
54983;SDS011;40884;53.562;9.940;2022-11-23T00:50:38;32.07;;;21.23;;
54983;SDS011;40884;53.562;9.940;2022-11-23T00:51:39;32.00;;;21.30;;
54983;SDS011;40884;53.562;9.940;2022-11-23T00:52:39;34.83;;;22.50;;
54983;SDS011;40884;53.562;9.940;2022-11-23T00:53:39;36.23;;;23.37;;
54983;SDS011;40884;53.562;9.940;2022-11-23T00:54:39;36.80;;;23.50;;
54983;SDS011;40884;53.562;9.940;2022-11-23T00:55:40;35.30;;;22.57;;
54983;SDS011;40884;53.562;9.940;2022-11-23T00:56:41;37.33;;;23.20;;
54983;SDS011;40884;53.562;9.940;2022-11-23T00:57:41;34.30;;;22.97;;
54983;SDS011;40884;53.562;9.940;2022-11-23T00:58:41;34.10;;;22.30;;
54983;SDS011;40884;53.562;9.940;2022-11-23T00:59:42;35.07;;;23.00;;
54983;SDS011;40884;53.562;9.940;2022-11-23T01:00:42;31.37;;;21.43;;
54983;SDS011;40884;53.562;9.940;2022-11-23T01:01:42;37.43;;;22.73;;
54983;SDS011;40884;53.562;9.940;2022-11-23T01:02:42;37.10;;;22.90;;
54983;SDS011;40884;53.562;9.940;2022-11-23T01:03:43;32.00;;;22.07;;
54983;SDS011;40884;53.562;9.940;2022-11-23T01:04:44;32.83;;;22.48;;
54983;SDS011;40884;53.562;9.940;2022-11-23T01:05:44;36.23;;;22.27;;
54983;SDS011;40884;53.562;9.940;2022-11-23T01:06:44;32.93;;;22.70;;
54983;SDS011;40884;53.562;9.940;2022-11-23T01:07:44;35.73;;;22.70;;
54983;SDS011;40884;53.562;9.940;2022-11-23T01:08:48;33.63;;;21.77;;
54983;SDS011;40884;53.562;9.940;2022-11-23T01:09:48;40.25;;;25.58;;
54983;SDS011;40884;53.562;9.940;2022-11-23T01:10:49;34.73;;;22.17;;
54983;SDS011;40884;53.562;9.940;2022-11-23T01:11:49;33.73;;;20.77;;
54983;SDS011;40884;53.562;9.940;2022-11-23T01:12:49;33.43;;;22.63;;
54983;SDS011;40884;53.562;9.940;2022-11-23T01:13:49;35.27;;;22.83;;
54983;SDS011;40884;53.562;9.940;2022-11-23T01:14:51;32.90;;;23.17;;
54983;SDS011;40884;53.562;9.940;2022-11-23T01:15:51;33.95;;;22.85;;
54983;SDS011;40884;53.562;9.940;2022-11-23T01:16:52;35.75;;;23.42;;
54983;SDS011;40884;53.562;9.940;2022-11-23T01:17:53;35.40;;;23.63;;
54983;SDS011;40884;53.562;9.940;2022-11-23T01:19:00;35.60;;;22.83;;
54983;SDS011;40884;53.562;9.940;2022-11-23T01:20:00;35.13;;;22.33;;
54983;SDS011;40884;53.562;9.940;2022-11-23T01:21:01;37.07;;;23.83;;
54983;SDS011;40884;53.562;9.940;2022-11-23T01:22:01;33.13;;;22.40;;
54983;SDS011;40884;53.562;9.940;2022-11-23T01:23:01;34.77;;;22.90;;
54983;SDS011;40884;53.562;9.940;2022-11-23T01:24:04;31.17;;;21.80;;
54983;SDS011;40884;53.562;9.940;2022-11-23T01:25:05;34.65;;;22.08;;
54983;SDS011;40884;53.562;9.940;2022-11-23T01:26:06;37.17;;;21.07;;
54983;SDS011;40884;53.562;9.940;2022-11-23T01:27:06;32.45;;;21.23;;
54983;SDS011;40884;53.562;9.940;2022-11-23T01:28:07;34.00;;;21.37;;
54983;SDS011;40884;53.562;9.940;2022-11-23T01:29:07;34.40;;;21.93;;
54983;SDS011;40884;53.562;9.940;2022-11-23T01:30:07;35.40;;;22.57;;
54983;SDS011;40884;53.562;9.940;2022-11-23T01:31:08;36.27;;;23.07;;
54983;SDS011;40884;53.562;9.940;2022-11-23T01:32:09;34.47;;;22.27;;
54983;SDS011;40884;53.562;9.940;2022-11-23T01:33:09;32.70;;;21.27;;
54983;SDS011;40884;53.562;9.940;2022-11-23T01:34:10;33.20;;;22.20;;
54983;SDS011;40884;53.562;9.940;2022-11-23T01:35:10;34.80;;;21.70;;
54983;SDS011;40884;53.562;9.940;2022-11-23T01:36:11;32.83;;;22.57;;
54983;SDS011;40884;53.562;9.940;2022-11-23T01:37:12;34.60;;;22.67;;
54983;SDS011;40884;53.562;9.940;2022-11-23T01:38:12;33.53;;;21.97;;
54983;SDS011;40884;53.562;9.940;2022-11-23T01:39:12;31.83;;;20.93;;
54983;SDS011;40884;53.562;9.940;2022-11-23T01:40:12;32.53;;;22.10;;
54983;SDS011;40884;53.562;9.940;2022-11-23T01:41:14;32.30;;;20.73;;
54983;SDS011;40884;53.562;9.940;2022-11-23T01:42:14;36.60;;;21.83;;
54983;SDS011;40884;53.562;9.940;2022-11-23T01:43:15;33.20;;;22.07;;
54983;SDS011;40884;53.562;9.940;2022-11-23T01:44:25;37.03;;;23.83;;
54983;SDS011;40884;53.562;9.940;2022-11-23T01:46:27;35.77;;;22.83;;
54983;SDS011;40884;53.562;9.940;2022-11-23T01:47:27;34.87;;;23.43;;
54983;SDS011;40884;53.562;9.940;2022-11-23T01:49:48;33.10;;;22.10;;
54983;SDS011;40884;53.562;9.940;2022-11-23T01:50:50;35.38;;;23.02;;
54983;SDS011;40884;53.562;9.940;2022-11-23T01:51:53;33.58;;;21.73;;
54983;SDS011;40884;53.562;9.940;2022-11-23T01:52:55;30.65;;;20.08;;
54983;SDS011;40884;53.562;9.940;2022-11-23T01:53:57;32.97;;;20.93;;
54983;SDS011;40884;53.562;9.940;2022-11-23T01:54:59;36.25;;;21.85;;
54983;SDS011;40884;53.562;9.940;2022-11-23T01:55:59;32.73;;;20.80;;
54983;SDS011;40884;53.562;9.940;2022-11-23T01:57:02;33.20;;;20.65;;
54983;SDS011;40884;53.562;9.940;2022-11-23T01:58:04;29.20;;;20.02;;
54983;SDS011;40884;53.562;9.940;2022-11-23T01:59:06;31.45;;;20.33;;
54983;SDS011;40884;53.562;9.940;2022-11-23T02:00:08;33.97;;;21.55;;
54983;SDS011;40884;53.562;9.940;2022-11-23T02:01:16;30.95;;;21.08;;
54983;SDS011;40884;53.562;9.940;2022-11-23T02:02:16;32.93;;;21.03;;
54983;SDS011;40884;53.562;9.940;2022-11-23T02:03:16;34.10;;;21.17;;
54983;SDS011;40884;53.562;9.940;2022-11-23T02:04:19;31.20;;;21.30;;
54983;SDS011;40884;53.562;9.940;2022-11-23T02:05:22;31.75;;;20.02;;
54983;SDS011;40884;53.562;9.940;2022-11-23T02:06:23;31.23;;;20.30;;
54983;SDS011;40884;53.562;9.940;2022-11-23T02:07:24;33.90;;;21.63;;
54983;SDS011;40884;53.562;9.940;2022-11-23T02:08:24;31.40;;;21.00;;
54983;SDS011;40884;53.562;9.940;2022-11-23T02:09:25;32.67;;;20.77;;
54983;SDS011;40884;53.562;9.940;2022-11-23T02:10:25;30.60;;;20.43;;
54983;SDS011;40884;53.562;9.940;2022-11-23T02:11:25;32.80;;;21.00;;
54983;SDS011;40884;53.562;9.940;2022-11-23T02:12:25;29.43;;;20.33;;
54983;SDS011;40884;53.562;9.940;2022-11-23T02:13:26;32.17;;;20.50;;
54983;SDS011;40884;53.562;9.940;2022-11-23T02:14:27;28.92;;;19.58;;
54983;SDS011;40884;53.562;9.940;2022-11-23T02:15:28;30.07;;;20.37;;
54983;SDS011;40884;53.562;9.940;2022-11-23T02:16:28;30.93;;;20.97;;
54983;SDS011;40884;53.562;9.940;2022-11-23T02:17:28;31.07;;;20.73;;
54983;SDS011;40884;53.562;9.940;2022-11-23T02:18:29;29.37;;;19.90;;
54983;SDS011;40884;53.562;9.940;2022-11-23T02:19:39;30.63;;;19.75;;
54983;SDS011;40884;53.562;9.940;2022-11-23T02:20:41;29.88;;;19.58;;
54983;SDS011;40884;53.562;9.940;2022-11-23T02:21:42;30.83;;;19.95;;
54983;SDS011;40884;53.562;9.940;2022-11-23T02:23:07;31.48;;;20.85;;
54983;SDS011;40884;53.562;9.940;2022-11-23T02:24:10;28.40;;;19.30;;
54983;SDS011;40884;53.562;9.940;2022-11-23T02:25:15;29.30;;;19.90;;
54983;SDS011;40884;53.562;9.940;2022-11-23T02:26:22;30.35;;;20.30;;
54983;SDS011;40884;53.562;9.940;2022-11-23T02:27:22;30.23;;;20.10;;
54983;SDS011;40884;53.562;9.940;2022-11-23T02:28:28;29.87;;;20.37;;
54983;SDS011;40884;53.562;9.940;2022-11-23T02:29:29;27.95;;;19.83;;
54983;SDS011;40884;53.562;9.940;2022-11-23T02:30:34;28.00;;;19.63;;
54983;SDS011;40884;53.562;9.940;2022-11-23T02:31:35;29.42;;;19.85;;
54983;SDS011;40884;53.562;9.940;2022-11-23T02:32:35;32.80;;;22.07;;
54983;SDS011;40884;53.562;9.940;2022-11-23T02:33:39;26.13;;;18.33;;
54983;SDS011;40884;53.562;9.940;2022-11-23T02:34:39;31.42;;;18.67;;
54983;SDS011;40884;53.562;9.940;2022-11-23T02:35:50;29.43;;;19.87;;
54983;SDS011;40884;53.562;9.940;2022-11-23T02:36:54;29.42;;;20.13;;
54983;SDS011;40884;53.562;9.940;2022-11-23T02:37:54;29.55;;;19.90;;
54983;SDS011;40884;53.562;9.940;2022-11-23T02:38:54;27.70;;;19.10;;
54983;SDS011;40884;53.562;9.940;2022-11-23T02:39:55;34.38;;;20.27;;
54983;SDS011;40884;53.562;9.940;2022-11-23T02:40:57;28.05;;;19.70;;
54983;SDS011;40884;53.562;9.940;2022-11-23T02:41:58;29.47;;;19.47;;
54983;SDS011;40884;53.562;9.940;2022-11-23T02:42:58;28.93;;;19.67;;
54983;SDS011;40884;53.562;9.940;2022-11-23T02:44:02;33.25;;;20.80;;
54983;SDS011;40884;53.562;9.940;2022-11-23T02:46:03;33.13;;;20.20;;
54983;SDS011;40884;53.562;9.940;2022-11-23T02:47:03;29.90;;;21.13;;
54983;SDS011;40884;53.562;9.940;2022-11-23T02:48:05;30.08;;;19.45;;
54983;SDS011;40884;53.562;9.940;2022-11-23T02:49:05;30.70;;;20.27;;
54983;SDS011;40884;53.562;9.940;2022-11-23T02:50:05;31.17;;;21.13;;
54983;SDS011;40884;53.562;9.940;2022-11-23T02:51:06;28.27;;;18.47;;
54983;SDS011;40884;53.562;9.940;2022-11-23T02:52:06;30.30;;;19.60;;
54983;SDS011;40884;53.562;9.940;2022-11-23T02:53:07;30.23;;;19.93;;
54983;SDS011;40884;53.562;9.940;2022-11-23T02:54:07;31.87;;;19.23;;
54983;SDS011;40884;53.562;9.940;2022-11-23T02:55:09;30.77;;;19.80;;
54983;SDS011;40884;53.562;9.940;2022-11-23T02:56:09;30.07;;;19.77;;
54983;SDS011;40884;53.562;9.940;2022-11-23T02:57:09;28.00;;;18.97;;
54983;SDS011;40884;53.562;9.940;2022-11-23T02:58:12;32.40;;;20.45;;
54983;SDS011;40884;53.562;9.940;2022-11-23T02:59:12;29.63;;;19.53;;
54983;SDS011;40884;53.562;9.940;2022-11-23T03:00:13;29.00;;;20.37;;
54983;SDS011;40884;53.562;9.940;2022-11-23T03:01:13;28.70;;;20.50;;
54983;SDS011;40884;53.562;9.940;2022-11-23T03:02:13;29.27;;;20.43;;
54983;SDS011;40884;53.562;9.940;2022-11-23T03:03:13;32.03;;;20.77;;
54983;SDS011;40884;53.562;9.940;2022-11-23T03:04:13;33.43;;;20.53;;
54983;SDS011;40884;53.562;9.940;2022-11-23T03:05:13;33.47;;;20.50;;
54983;SDS011;40884;53.562;9.940;2022-11-23T03:06:14;30.87;;;19.67;;
54983;SDS011;40884;53.562;9.940;2022-11-23T03:07:14;32.67;;;20.43;;
54983;SDS011;40884;53.562;9.940;2022-11-23T03:08:15;33.37;;;19.87;;
54983;SDS011;40884;53.562;9.940;2022-11-23T03:09:15;29.37;;;20.17;;
54983;SDS011;40884;53.562;9.940;2022-11-23T03:10:16;33.17;;;21.10;;
54983;SDS011;40884;53.562;9.940;2022-11-23T03:11:18;28.92;;;20.10;;
54983;SDS011;40884;53.562;9.940;2022-11-23T03:12:18;30.07;;;20.63;;
54983;SDS011;40884;53.562;9.940;2022-11-23T03:13:18;32.20;;;20.40;;
54983;SDS011;40884;53.562;9.940;2022-11-23T03:14:19;28.77;;;19.40;;
54983;SDS011;40884;53.562;9.940;2022-11-23T03:15:26;28.85;;;19.98;;
54983;SDS011;40884;53.562;9.940;2022-11-23T03:16:27;29.30;;;20.13;;
54983;SDS011;40884;53.562;9.940;2022-11-23T03:17:27;29.57;;;19.73;;
54983;SDS011;40884;53.562;9.940;2022-11-23T03:18:27;28.37;;;19.23;;
54983;SDS011;40884;53.562;9.940;2022-11-23T03:19:28;28.77;;;20.10;;
54983;SDS011;40884;53.562;9.940;2022-11-23T03:20:28;30.43;;;19.70;;
54983;SDS011;40884;53.562;9.940;2022-11-23T03:21:28;30.63;;;20.27;;
54983;SDS011;40884;53.562;9.940;2022-11-23T03:22:28;30.20;;;20.33;;
54983;SDS011;40884;53.562;9.940;2022-11-23T03:23:29;29.95;;;20.23;;
54983;SDS011;40884;53.562;9.940;2022-11-23T03:24:29;29.57;;;19.90;;
54983;SDS011;40884;53.562;9.940;2022-11-23T03:25:30;28.13;;;18.17;;
54983;SDS011;40884;53.562;9.940;2022-11-23T03:26:32;28.88;;;18.90;;
54983;SDS011;40884;53.562;9.940;2022-11-23T03:27:41;28.58;;;19.27;;
54983;SDS011;40884;53.562;9.940;2022-11-23T03:28:41;29.20;;;20.23;;
54983;SDS011;40884;53.562;9.940;2022-11-23T03:29:41;27.23;;;19.23;;
54983;SDS011;40884;53.562;9.940;2022-11-23T03:30:47;28.85;;;19.80;;
54983;SDS011;40884;53.562;9.940;2022-11-23T03:31:48;34.80;;;20.53;;
54983;SDS011;40884;53.562;9.940;2022-11-23T03:32:50;30.20;;;20.13;;
54983;SDS011;40884;53.562;9.940;2022-11-23T03:33:52;30.65;;;19.50;;
54983;SDS011;40884;53.562;9.940;2022-11-23T03:34:52;31.17;;;19.57;;
54983;SDS011;40884;53.562;9.940;2022-11-23T03:35:54;30.65;;;20.05;;
54983;SDS011;40884;53.562;9.940;2022-11-23T03:36:58;27.38;;;19.25;;
54983;SDS011;40884;53.562;9.940;2022-11-23T03:37:58;27.77;;;18.10;;
54983;SDS011;40884;53.562;9.940;2022-11-23T03:38:59;28.47;;;19.50;;
54983;SDS011;40884;53.562;9.940;2022-11-23T03:40:18;29.20;;;19.13;;
54983;SDS011;40884;53.562;9.940;2022-11-23T03:41:40;27.95;;;18.48;;
54983;SDS011;40884;53.562;9.940;2022-11-23T03:42:42;27.88;;;18.50;;
54983;SDS011;40884;53.562;9.940;2022-11-23T03:43:42;26.73;;;19.03;;
54983;SDS011;40884;53.562;9.940;2022-11-23T03:44:42;27.73;;;19.13;;
54983;SDS011;40884;53.562;9.940;2022-11-23T03:45:42;27.03;;;18.57;;
54983;SDS011;40884;53.562;9.940;2022-11-23T03:46:42;28.37;;;19.63;;
54983;SDS011;40884;53.562;9.940;2022-11-23T03:47:42;29.30;;;19.00;;
54983;SDS011;40884;53.562;9.940;2022-11-23T03:48:43;27.93;;;18.53;;
54983;SDS011;40884;53.562;9.940;2022-11-23T03:49:43;27.67;;;19.43;;
54983;SDS011;40884;53.562;9.940;2022-11-23T03:50:43;27.70;;;18.60;;
54983;SDS011;40884;53.562;9.940;2022-11-23T03:51:44;27.43;;;17.63;;
54983;SDS011;40884;53.562;9.940;2022-11-23T03:52:44;28.60;;;18.10;;
54983;SDS011;40884;53.562;9.940;2022-11-23T03:53:48;28.23;;;18.00;;
54983;SDS011;40884;53.562;9.940;2022-11-23T03:54:48;28.37;;;19.00;;
54983;SDS011;40884;53.562;9.940;2022-11-23T03:55:49;25.27;;;17.20;;
54983;SDS011;40884;53.562;9.940;2022-11-23T03:56:49;29.30;;;18.30;;
54983;SDS011;40884;53.562;9.940;2022-11-23T03:57:49;26.50;;;18.57;;
54983;SDS011;40884;53.562;9.940;2022-11-23T03:58:49;29.10;;;18.97;;
54983;SDS011;40884;53.562;9.940;2022-11-23T03:59:50;29.33;;;18.67;;
54983;SDS011;40884;53.562;9.940;2022-11-23T04:00:50;27.70;;;18.03;;
54983;SDS011;40884;53.562;9.940;2022-11-23T04:01:50;27.73;;;19.03;;
54983;SDS011;40884;53.562;9.940;2022-11-23T04:02:55;26.77;;;17.73;;
54983;SDS011;40884;53.562;9.940;2022-11-23T04:04:24;30.08;;;19.15;;
54983;SDS011;40884;53.562;9.940;2022-11-23T04:05:57;28.85;;;18.25;;
54983;SDS011;40884;53.562;9.940;2022-11-23T04:07:23;27.55;;;17.70;;
54983;SDS011;40884;53.562;9.940;2022-11-23T04:08:27;27.40;;;17.25;;
54983;SDS011;40884;53.562;9.940;2022-11-23T04:09:28;24.45;;;16.88;;
54983;SDS011;40884;53.562;9.940;2022-11-23T04:10:56;22.90;;;17.10;;
54983;SDS011;40884;53.562;9.940;2022-11-23T04:12:06;25.50;;;17.00;;
54983;SDS011;40884;53.562;9.940;2022-11-23T04:13:08;27.08;;;17.17;;
54983;SDS011;40884;53.562;9.940;2022-11-23T04:14:09;26.20;;;16.80;;
54983;SDS011;40884;53.562;9.940;2022-11-23T04:15:09;29.23;;;18.00;;
54983;SDS011;40884;53.562;9.940;2022-11-23T04:16:10;25.52;;;16.38;;
54983;SDS011;40884;53.562;9.940;2022-11-23T04:17:11;26.23;;;17.27;;
54983;SDS011;40884;53.562;9.940;2022-11-23T04:18:11;22.70;;;16.50;;
54983;SDS011;40884;53.562;9.940;2022-11-23T04:19:12;27.00;;;17.48;;
54983;SDS011;40884;53.562;9.940;2022-11-23T04:20:12;24.47;;;17.17;;
54983;SDS011;40884;53.562;9.940;2022-11-23T04:21:13;22.63;;;16.40;;
54983;SDS011;40884;53.562;9.940;2022-11-23T04:22:13;25.57;;;17.83;;
54983;SDS011;40884;53.562;9.940;2022-11-23T04:23:15;23.10;;;17.33;;
54983;SDS011;40884;53.562;9.940;2022-11-23T04:24:16;27.00;;;17.57;;
54983;SDS011;40884;53.562;9.940;2022-11-23T04:25:16;25.73;;;17.00;;
54983;SDS011;40884;53.562;9.940;2022-11-23T04:26:17;24.13;;;16.37;;
54983;SDS011;40884;53.562;9.940;2022-11-23T04:27:19;24.50;;;17.38;;
54983;SDS011;40884;53.562;9.940;2022-11-23T04:28:19;25.17;;;16.80;;
54983;SDS011;40884;53.562;9.940;2022-11-23T04:29:21;26.58;;;17.05;;
54983;SDS011;40884;53.562;9.940;2022-11-23T04:30:26;25.30;;;17.55;;
54983;SDS011;40884;53.562;9.940;2022-11-23T04:31:29;25.08;;;17.10;;
54983;SDS011;40884;53.562;9.940;2022-11-23T04:32:43;27.73;;;17.48;;
54983;SDS011;40884;53.562;9.940;2022-11-23T04:33:43;24.92;;;15.30;;
54983;SDS011;40884;53.562;9.940;2022-11-23T04:34:43;26.77;;;17.20;;
54983;SDS011;40884;53.562;9.940;2022-11-23T04:35:46;24.00;;;17.13;;
54983;SDS011;40884;53.562;9.940;2022-11-23T04:36:47;25.20;;;16.17;;
54983;SDS011;40884;53.562;9.940;2022-11-23T04:37:47;28.53;;;17.87;;
54983;SDS011;40884;53.562;9.940;2022-11-23T04:38:48;27.70;;;17.33;;
54983;SDS011;40884;53.562;9.940;2022-11-23T04:39:51;23.63;;;16.85;;
54983;SDS011;40884;53.562;9.940;2022-11-23T04:40:53;24.67;;;17.60;;
54983;SDS011;40884;53.562;9.940;2022-11-23T04:41:53;27.97;;;17.80;;
54983;SDS011;40884;53.562;9.940;2022-11-23T04:42:54;24.00;;;17.40;;
54983;SDS011;40884;53.562;9.940;2022-11-23T04:43:54;27.57;;;17.37;;
54983;SDS011;40884;53.562;9.940;2022-11-23T04:44:56;25.33;;;17.15;;
54983;SDS011;40884;53.562;9.940;2022-11-23T04:45:56;23.07;;;15.93;;
54983;SDS011;40884;53.562;9.940;2022-11-23T04:47:02;24.58;;;16.25;;
54983;SDS011;40884;53.562;9.940;2022-11-23T04:48:02;25.63;;;16.40;;
54983;SDS011;40884;53.562;9.940;2022-11-23T04:49:02;23.73;;;15.20;;
54983;SDS011;40884;53.562;9.940;2022-11-23T04:50:02;23.97;;;16.10;;
54983;SDS011;40884;53.562;9.940;2022-11-23T04:51:03;24.57;;;16.37;;
54983;SDS011;40884;53.562;9.940;2022-11-23T04:52:08;23.73;;;15.38;;
54983;SDS011;40884;53.562;9.940;2022-11-23T04:53:15;24.75;;;16.83;;
54983;SDS011;40884;53.562;9.940;2022-11-23T04:54:19;24.20;;;15.98;;
54983;SDS011;40884;53.562;9.940;2022-11-23T04:55:25;25.67;;;16.23;;
54983;SDS011;40884;53.562;9.940;2022-11-23T04:56:30;21.88;;;16.05;;
54983;SDS011;40884;53.562;9.940;2022-11-23T04:57:30;24.67;;;17.67;;
54983;SDS011;40884;53.562;9.940;2022-11-23T04:58:30;25.67;;;17.03;;
54983;SDS011;40884;53.562;9.940;2022-11-23T04:59:31;21.63;;;16.07;;
54983;SDS011;40884;53.562;9.940;2022-11-23T05:00:32;21.57;;;15.60;;
54983;SDS011;40884;53.562;9.940;2022-11-23T05:01:33;24.27;;;16.17;;
54983;SDS011;40884;53.562;9.940;2022-11-23T05:02:52;25.75;;;16.92;;
54983;SDS011;40884;53.562;9.940;2022-11-23T05:03:57;24.63;;;16.73;;
54983;SDS011;40884;53.562;9.940;2022-11-23T05:04:57;22.27;;;16.27;;
54983;SDS011;40884;53.562;9.940;2022-11-23T05:06:02;22.73;;;16.23;;
54983;SDS011;40884;53.562;9.940;2022-11-23T05:07:09;25.17;;;17.35;;
54983;SDS011;40884;53.562;9.940;2022-11-23T05:08:12;21.77;;;15.90;;
54983;SDS011;40884;53.562;9.940;2022-11-23T05:09:33;24.20;;;15.70;;
54983;SDS011;40884;53.562;9.940;2022-11-23T05:10:53;27.73;;;15.82;;
54983;SDS011;40884;53.562;9.940;2022-11-23T05:11:54;24.97;;;17.10;;
54983;SDS011;40884;53.562;9.940;2022-11-23T05:12:54;26.70;;;16.77;;
54983;SDS011;40884;53.562;9.940;2022-11-23T05:13:55;23.80;;;16.13;;
54983;SDS011;40884;53.562;9.940;2022-11-23T05:14:55;23.70;;;16.80;;
54983;SDS011;40884;53.562;9.940;2022-11-23T05:16:02;23.88;;;15.98;;
54983;SDS011;40884;53.562;9.940;2022-11-23T05:17:02;22.13;;;15.87;;
54983;SDS011;40884;53.562;9.940;2022-11-23T05:18:04;23.13;;;15.20;;
54983;SDS011;40884;53.562;9.940;2022-11-23T05:19:04;24.25;;;16.05;;
54983;SDS011;40884;53.562;9.940;2022-11-23T05:20:05;24.63;;;17.10;;
54983;SDS011;40884;53.562;9.940;2022-11-23T05:21:08;24.70;;;16.35;;
54983;SDS011;40884;53.562;9.940;2022-11-23T05:22:08;27.83;;;17.43;;
54983;SDS011;40884;53.562;9.940;2022-11-23T05:23:10;27.35;;;16.90;;
54983;SDS011;40884;53.562;9.940;2022-11-23T05:24:13;25.42;;;16.90;;
54983;SDS011;40884;53.562;9.940;2022-11-23T05:25:19;27.10;;;16.90;;
54983;SDS011;40884;53.562;9.940;2022-11-23T05:26:25;26.42;;;17.48;;
54983;SDS011;40884;53.562;9.940;2022-11-23T05:27:26;25.30;;;16.53;;
54983;SDS011;40884;53.562;9.940;2022-11-23T05:28:27;21.63;;;16.33;;
54983;SDS011;40884;53.562;9.940;2022-11-23T05:29:27;25.73;;;17.03;;
54983;SDS011;40884;53.562;9.940;2022-11-23T05:30:27;25.80;;;17.33;;
54983;SDS011;40884;53.562;9.940;2022-11-23T05:31:27;24.97;;;16.77;;
54983;SDS011;40884;53.562;9.940;2022-11-23T05:32:27;26.60;;;18.53;;
54983;SDS011;40884;53.562;9.940;2022-11-23T05:33:28;28.13;;;19.47;;
54983;SDS011;40884;53.562;9.940;2022-11-23T05:34:28;28.37;;;17.67;;
54983;SDS011;40884;53.562;9.940;2022-11-23T05:35:28;26.57;;;17.60;;
54983;SDS011;40884;53.562;9.940;2022-11-23T05:36:29;27.40;;;17.60;;
54983;SDS011;40884;53.562;9.940;2022-11-23T05:37:29;26.07;;;17.10;;
54983;SDS011;40884;53.562;9.940;2022-11-23T05:38:34;28.08;;;16.80;;
54983;SDS011;40884;53.562;9.940;2022-11-23T05:39:37;28.80;;;18.70;;
54983;SDS011;40884;53.562;9.940;2022-11-23T05:40:37;27.63;;;17.90;;
54983;SDS011;40884;53.562;9.940;2022-11-23T05:41:37;25.27;;;17.60;;
54983;SDS011;40884;53.562;9.940;2022-11-23T05:42:41;28.33;;;18.08;;
54983;SDS011;40884;53.562;9.940;2022-11-23T05:43:47;29.20;;;18.75;;
54983;SDS011;40884;53.562;9.940;2022-11-23T05:44:52;29.85;;;18.52;;
54983;SDS011;40884;53.562;9.940;2022-11-23T05:45:58;26.38;;;18.02;;
54983;SDS011;40884;53.562;9.940;2022-11-23T05:46:59;26.63;;;17.70;;
54983;SDS011;40884;53.562;9.940;2022-11-23T05:48:02;25.98;;;18.60;;
54983;SDS011;40884;53.562;9.940;2022-11-23T05:49:15;27.92;;;18.65;;
54983;SDS011;40884;53.562;9.940;2022-11-23T05:50:16;30.60;;;18.90;;
54983;SDS011;40884;53.562;9.940;2022-11-23T05:51:19;29.30;;;18.58;;
54983;SDS011;40884;53.562;9.940;2022-11-23T05:52:23;27.45;;;18.60;;
54983;SDS011;40884;53.562;9.940;2022-11-23T05:53:23;25.92;;;16.77;;
54983;SDS011;40884;53.562;9.940;2022-11-23T05:54:29;26.05;;;18.38;;
54983;SDS011;40884;53.562;9.940;2022-11-23T05:55:35;24.25;;;18.05;;
54983;SDS011;40884;53.562;9.940;2022-11-23T05:56:35;26.53;;;18.13;;
54983;SDS011;40884;53.562;9.940;2022-11-23T05:57:40;27.40;;;18.83;;
54983;SDS011;40884;53.562;9.940;2022-11-23T05:58:41;29.63;;;19.73;;
54983;SDS011;40884;53.562;9.940;2022-11-23T05:59:42;24.52;;;17.20;;
54983;SDS011;40884;53.562;9.940;2022-11-23T06:00:47;29.13;;;19.25;;
54983;SDS011;40884;53.562;9.940;2022-11-23T06:01:47;26.37;;;18.27;;
54983;SDS011;40884;53.562;9.940;2022-11-23T06:03:01;30.48;;;19.38;;
54983;SDS011;40884;53.562;9.940;2022-11-23T06:04:04;25.52;;;16.88;;
54983;SDS011;40884;53.562;9.940;2022-11-23T06:05:09;25.65;;;17.45;;
54983;SDS011;40884;53.562;9.940;2022-11-23T06:06:18;26.73;;;17.92;;